createdAt,value
2017-06-11T00:00:30.247Z,17.82
2017-06-11T00:03:00.027Z,17.80
2017-06-11T00:05:29.762Z,17.76
2017-06-11T00:07:59.469Z,17.71
2017-06-11T00:10:29.152Z,17.67
2017-06-11T00:12:58.846Z,17.49
2017-06-11T00:15:28.504Z,17.54
2017-06-11T00:17:58.250Z,17.55
2017-06-11T00:20:27.979Z,17.48
2017-06-11T00:22:57.680Z,17.41
2017-06-11T00:25:27.364Z,17.20
2017-06-11T00:27:57.038Z,17.33
2017-06-11T00:30:26.731Z,17.25
2017-06-11T00:32:56.389Z,17.14
2017-06-11T00:35:26.103Z,17.01
2017-06-11T00:37:55.791Z,17.03
2017-06-11T00:40:26.278Z,17.01
2017-06-11T00:42:56.019Z,17.06
2017-06-11T00:45:25.685Z,16.99
2017-06-11T00:47:55.446Z,16.95
2017-06-11T00:50:25.231Z,16.97
2017-06-11T00:52:54.903Z,16.90
2017-06-11T00:55:25.493Z,16.90
2017-06-11T00:57:55.162Z,16.92
2017-06-11T01:00:24.852Z,16.91
2017-06-11T01:02:54.538Z,16.71
2017-06-11T01:05:24.240Z,16.64
2017-06-11T01:07:53.963Z,16.62
2017-06-11T01:10:23.680Z,16.71
2017-06-11T01:12:53.394Z,16.59
2017-06-11T01:15:23.799Z,16.78
2017-06-11T01:17:55.930Z,16.67
2017-06-11T01:20:30.123Z,16.62
2017-06-11T01:23:01.453Z,16.53
2017-06-11T01:25:33.016Z,16.51
2017-06-11T01:28:05.233Z,16.44
2017-06-11T01:30:37.345Z,16.42
2017-06-11T01:33:09.748Z,16.41
2017-06-11T01:35:44.582Z,16.35
2017-06-11T01:38:15.955Z,16.26
2017-06-11T01:40:46.725Z,16.25
2017-06-11T01:43:17.894Z,16.17
2017-06-11T01:45:50.259Z,16.24
2017-06-11T01:48:24.381Z,16.21
2017-06-11T01:50:55.805Z,16.12
2017-06-11T01:53:26.926Z,16.02
2017-06-11T01:55:56.600Z,16.09
2017-06-11T01:58:26.270Z,16.21
2017-06-11T02:00:56.554Z,16.11
2017-06-11T02:03:26.231Z,16.04
2017-06-11T02:05:55.970Z,16.04
2017-06-11T02:08:25.683Z,16.06
2017-06-11T02:10:55.363Z,15.96
2017-06-11T02:13:25.086Z,15.89
2017-06-11T02:15:57.085Z,15.95
2017-06-11T02:18:28.273Z,15.95
2017-06-11T02:20:58.022Z,15.76
2017-06-11T02:23:27.691Z,15.71
2017-06-11T02:25:57.403Z,15.77
2017-06-11T02:28:27.070Z,15.64
2017-06-11T02:30:56.794Z,15.65
2017-06-11T02:33:26.461Z,15.67
2017-06-11T02:35:56.214Z,15.73
2017-06-11T02:38:26.517Z,15.78
2017-06-11T02:40:56.646Z,15.88
2017-06-11T02:43:28.378Z,15.86
2017-06-11T02:45:59.005Z,15.79
2017-06-11T02:48:29.941Z,15.68
2017-06-11T02:51:00.825Z,15.59
2017-06-11T02:53:31.116Z,15.54
2017-06-11T02:56:02.033Z,15.44
2017-06-11T02:58:32.654Z,15.40
2017-06-11T03:01:03.667Z,15.41
2017-06-11T03:03:36.803Z,15.43
2017-06-11T03:06:09.623Z,15.45
2017-06-11T03:08:43.014Z,15.43
2017-06-11T03:11:13.550Z,15.55
2017-06-11T03:13:44.575Z,15.45
2017-06-11T03:16:16.844Z,15.62
2017-06-11T03:18:49.462Z,15.58
2017-06-11T03:21:20.218Z,15.61
2017-06-11T03:23:51.474Z,15.72
2017-06-11T03:26:21.707Z,15.73
2017-06-11T03:28:51.481Z,15.65
2017-06-11T03:31:22.693Z,15.78
2017-06-11T03:33:52.780Z,15.87
2017-06-11T03:36:22.965Z,15.76
2017-06-11T03:38:54.449Z,15.73
2017-06-11T03:41:25.337Z,15.83
2017-06-11T03:43:56.928Z,15.78
2017-06-11T03:46:30.038Z,15.83
2017-06-11T03:49:01.443Z,15.78
2017-06-11T03:51:32.452Z,15.86
2017-06-11T03:54:04.222Z,15.80
2017-06-11T03:56:36.690Z,15.87
2017-06-11T03:59:07.303Z,15.97
2017-06-11T04:01:38.966Z,16.13
2017-06-11T04:04:11.772Z,16.31
2017-06-11T04:06:43.510Z,16.41
2017-06-11T04:09:14.014Z,16.53
2017-06-11T04:11:44.966Z,16.65
2017-06-11T04:14:15.775Z,16.82
2017-06-11T04:16:49.109Z,16.97
2017-06-11T04:19:20.604Z,16.99
2017-06-11T04:21:54.015Z,17.25
2017-06-11T04:24:24.200Z,17.38
2017-06-11T04:26:54.944Z,17.55
2017-06-11T04:29:25.001Z,17.62
2017-06-11T04:31:56.174Z,17.68
2017-06-11T04:34:26.866Z,17.60
2017-06-11T04:36:57.541Z,17.57
2017-06-11T04:39:28.155Z,17.85
2017-06-11T04:41:57.840Z,17.99
2017-06-11T04:44:27.543Z,18.09
2017-06-11T04:46:57.236Z,18.22
2017-06-11T04:49:26.911Z,18.10
2017-06-11T04:51:56.601Z,18.32
2017-06-11T04:54:26.294Z,18.45
2017-06-11T04:56:56.009Z,18.57
2017-06-11T04:59:25.674Z,18.42
2017-06-11T05:01:55.343Z,18.25
2017-06-11T05:04:25.076Z,18.50
2017-06-11T05:06:54.858Z,18.23
2017-06-11T05:09:24.608Z,18.36
2017-06-11T05:11:54.287Z,18.38
2017-06-11T05:14:24.003Z,18.26
2017-06-11T05:16:53.675Z,18.30
2017-06-11T05:19:23.339Z,18.18
2017-06-11T05:21:53.039Z,18.22
2017-06-11T05:24:22.771Z,18.36
2017-06-11T05:26:52.493Z,18.63
2017-06-11T05:29:22.863Z,18.46
2017-06-11T05:31:52.586Z,18.28
2017-06-11T05:34:22.250Z,18.43
2017-06-11T05:36:51.927Z,18.47
2017-06-11T05:39:22.554Z,18.53
2017-06-11T05:41:52.230Z,18.46
2017-06-11T05:44:21.943Z,18.56
2017-06-11T05:46:51.610Z,18.48
2017-06-11T05:49:21.339Z,18.59
2017-06-11T05:51:51.038Z,18.74
2017-06-11T05:54:20.775Z,18.73
2017-06-11T05:56:50.474Z,18.92
2017-06-11T05:59:20.147Z,19.00
2017-06-11T06:01:49.851Z,19.06
2017-06-11T06:04:19.525Z,19.14
2017-06-11T06:06:49.254Z,19.27
2017-06-11T06:09:18.922Z,19.27
2017-06-11T06:11:48.585Z,19.32
2017-06-11T06:14:18.454Z,19.48
2017-06-11T06:16:48.118Z,19.64
2017-06-11T06:19:18.646Z,19.32
2017-06-11T06:21:48.319Z,19.48
2017-06-11T06:24:18.043Z,19.65
2017-06-11T06:26:47.712Z,19.83
2017-06-11T06:29:17.374Z,19.92
2017-06-11T06:31:46.875Z,19.99
2017-06-11T06:34:16.591Z,20.04
2017-06-11T06:36:46.304Z,20.11
2017-06-11T06:39:16.003Z,20.12
2017-06-11T06:41:45.716Z,20.19
2017-06-11T06:44:15.395Z,20.29
2017-06-11T06:46:45.164Z,20.43
2017-06-11T06:49:14.821Z,20.49
2017-06-11T06:51:44.519Z,20.62
2017-06-11T06:54:14.225Z,20.71
2017-06-11T06:56:43.930Z,20.75
2017-06-11T06:59:13.618Z,20.82
2017-06-11T07:01:43.287Z,20.98
2017-06-11T07:04:13.019Z,21.18
2017-06-11T07:06:42.684Z,21.10
2017-06-11T07:09:12.360Z,21.32
2017-06-11T07:11:42.061Z,21.50
2017-06-11T07:14:11.723Z,21.73
2017-06-11T07:16:41.420Z,21.83
2017-06-11T07:19:11.085Z,22.10
2017-06-11T07:21:40.895Z,22.30
2017-06-11T07:24:10.560Z,22.38
2017-06-11T07:26:40.261Z,22.63
2017-06-11T07:29:09.968Z,22.88
2017-06-11T07:31:39.810Z,22.93
2017-06-11T07:34:09.510Z,23.02
2017-06-11T07:36:39.181Z,23.25
2017-06-11T07:39:08.922Z,23.43
2017-06-11T07:41:38.599Z,23.60
2017-06-11T07:44:08.266Z,23.68
2017-06-11T07:46:37.967Z,23.78
2017-06-11T07:49:07.627Z,23.89
2017-06-11T07:51:37.330Z,23.97
2017-06-11T07:54:06.873Z,24.08
2017-06-11T07:56:36.626Z,24.16
2017-06-11T07:59:06.419Z,24.08
2017-06-11T08:01:36.095Z,24.27
2017-06-11T08:04:05.887Z,24.31
2017-06-11T08:06:35.599Z,24.51
2017-06-11T08:09:04.610Z,24.57
2017-06-11T08:11:34.473Z,24.66
2017-06-11T08:14:04.181Z,23.97
2017-06-11T08:16:33.849Z,24.44
2017-06-11T08:19:03.542Z,24.50
2017-06-11T08:21:33.288Z,24.52
2017-06-11T08:24:02.972Z,24.86
2017-06-11T08:26:32.713Z,24.48
2017-06-11T08:29:02.385Z,24.42
2017-06-11T08:31:32.198Z,24.67
2017-06-11T08:34:01.877Z,24.60
2017-06-11T08:36:31.584Z,25.07
2017-06-11T08:39:01.474Z,25.14
2017-06-11T08:41:31.189Z,24.47
2017-06-11T08:44:01.090Z,25.04
2017-06-11T08:46:30.763Z,25.42
2017-06-11T08:49:01.245Z,25.49
2017-06-11T08:51:30.930Z,25.37
2017-06-11T08:54:00.800Z,25.64
2017-06-11T08:56:30.485Z,25.92
2017-06-11T08:59:00.245Z,25.95
2017-06-11T09:01:29.933Z,25.59
2017-06-11T09:03:59.610Z,25.55
2017-06-11T09:06:29.326Z,25.86
2017-06-11T09:08:59.094Z,26.18
2017-06-11T09:11:28.770Z,26.37
2017-06-11T09:13:58.490Z,26.31
2017-06-11T09:16:28.160Z,26.35
2017-06-11T09:18:57.853Z,26.47
2017-06-11T09:21:27.556Z,26.57
2017-06-11T09:23:57.305Z,26.65
2017-06-11T09:26:26.979Z,26.65
2017-06-11T09:28:56.645Z,26.46
2017-06-11T09:31:26.355Z,26.38
2017-06-11T09:33:56.022Z,26.72
2017-06-11T09:36:25.725Z,26.70
2017-06-11T09:38:55.416Z,26.80
2017-06-11T09:41:25.126Z,26.87
2017-06-11T09:43:54.793Z,26.96
2017-06-11T09:46:24.466Z,27.01
2017-06-11T09:48:54.146Z,26.94
2017-06-11T09:51:23.833Z,27.01
2017-06-11T09:53:53.590Z,26.75
2017-06-11T09:56:23.597Z,26.92
2017-06-11T09:58:53.703Z,26.95
2017-06-11T10:01:24.957Z,26.91
2017-06-11T10:03:58.035Z,27.06
2017-06-11T10:06:28.990Z,27.17
2017-06-11T10:08:59.429Z,26.39
2017-06-11T10:11:29.818Z,26.89
2017-06-11T10:14:00.074Z,27.07
2017-06-11T10:16:32.418Z,26.41
2017-06-11T10:19:02.883Z,25.70
2017-06-11T10:21:34.142Z,26.35
2017-06-11T10:24:06.148Z,26.78
2017-06-11T10:26:37.775Z,27.01
2017-06-11T10:29:09.458Z,27.09
2017-06-11T10:31:41.355Z,27.12
2017-06-11T10:34:13.305Z,27.23
2017-06-11T10:36:46.694Z,27.24
2017-06-11T10:39:19.357Z,27.23
2017-06-11T10:41:49.744Z,27.25
2017-06-11T10:44:21.572Z,26.83
2017-06-11T10:46:54.679Z,27.25
2017-06-11T10:49:27.676Z,27.42
2017-06-11T10:52:00.034Z,27.41
2017-06-11T10:54:31.680Z,27.49
2017-06-11T10:57:03.210Z,27.52
2017-06-11T10:59:35.765Z,27.58
2017-06-11T11:02:07.119Z,27.69
2017-06-11T11:04:38.535Z,27.73
2017-06-11T11:07:10.208Z,27.85
2017-06-11T11:09:43.227Z,28.10
2017-06-11T11:12:14.639Z,28.11
2017-06-11T11:14:45.441Z,27.52
2017-06-11T11:17:15.853Z,27.36
2017-06-11T11:19:47.445Z,27.09
2017-06-11T11:22:17.650Z,26.45
2017-06-11T11:24:48.690Z,26.76
2017-06-11T11:27:19.472Z,27.18
2017-06-11T11:29:50.601Z,27.41
2017-06-11T11:32:21.811Z,27.54
2017-06-11T11:34:52.924Z,27.80
2017-06-11T11:37:23.708Z,27.04
2017-06-11T11:39:54.566Z,27.33
2017-06-11T11:42:25.734Z,26.89
2017-06-11T11:44:55.938Z,26.61
2017-06-11T11:47:26.058Z,27.12
2017-06-11T11:49:56.565Z,27.27
2017-06-11T11:52:27.663Z,27.63
2017-06-11T11:54:58.610Z,27.95
2017-06-11T11:57:29.191Z,28.16
2017-06-11T12:00:00.245Z,27.51
2017-06-11T12:02:30.749Z,27.75
2017-06-11T12:05:01.380Z,27.92
2017-06-11T12:07:32.430Z,27.99
2017-06-11T12:10:03.733Z,27.97
2017-06-11T12:12:33.640Z,27.62
2017-06-11T12:15:03.457Z,27.93
2017-06-11T12:17:33.600Z,28.06
2017-06-11T12:20:03.319Z,28.25
2017-06-11T12:22:33.157Z,28.29
2017-06-11T12:25:02.855Z,28.30
2017-06-11T12:27:32.686Z,28.20
2017-06-11T12:30:03.033Z,28.01
2017-06-11T12:32:32.825Z,28.29
2017-06-11T12:35:02.506Z,28.46
2017-06-11T12:37:32.339Z,27.91
2017-06-11T12:40:02.192Z,27.84
2017-06-11T12:42:31.924Z,27.01
2017-06-11T12:45:01.770Z,27.43
2017-06-11T12:47:31.534Z,27.67
2017-06-11T12:50:01.321Z,27.83
2017-06-11T12:52:30.994Z,27.21
2017-06-11T12:55:00.706Z,27.60
2017-06-11T12:57:30.411Z,27.94
2017-06-11T13:00:00.168Z,28.05
2017-06-11T13:02:29.839Z,28.21
2017-06-11T13:04:59.577Z,28.38
2017-06-11T13:07:29.341Z,28.52
2017-06-11T13:09:59.095Z,28.59
2017-06-11T13:12:28.779Z,28.53
2017-06-11T13:14:58.460Z,28.53
2017-06-11T13:17:28.216Z,28.66
2017-06-11T13:19:57.923Z,28.42
2017-06-11T13:22:27.617Z,27.79
2017-06-11T13:24:57.293Z,28.02
2017-06-11T13:27:27.032Z,28.17
2017-06-11T13:29:56.737Z,28.04
2017-06-11T13:32:26.455Z,28.24
2017-06-11T13:34:56.184Z,27.91
2017-06-11T13:37:25.858Z,28.02
2017-06-11T13:39:55.574Z,27.41
2017-06-11T13:42:25.266Z,27.22
2017-06-11T13:44:55.021Z,27.62
2017-06-11T13:47:25.553Z,27.86
2017-06-11T13:49:55.276Z,27.70
2017-06-11T13:52:24.986Z,27.78
2017-06-11T13:54:54.695Z,27.68
2017-06-11T13:57:24.417Z,27.29
2017-06-11T13:59:54.090Z,27.40
2017-06-11T14:02:23.880Z,27.78
2017-06-11T14:04:53.559Z,27.85
2017-06-11T14:07:23.249Z,27.45
2017-06-11T14:09:52.805Z,27.38
2017-06-11T14:12:23.224Z,27.63
2017-06-11T14:14:54.221Z,27.73
2017-06-11T14:17:24.885Z,27.70
2017-06-11T14:19:55.176Z,27.82
2017-06-11T14:22:24.678Z,27.32
2017-06-11T14:24:54.161Z,27.48
2017-06-11T14:27:23.724Z,27.61
2017-06-11T14:29:53.313Z,27.79
2017-06-11T14:32:23.024Z,27.58
2017-06-11T14:34:52.709Z,27.54
2017-06-11T14:37:22.423Z,27.68
2017-06-11T14:39:52.142Z,27.85
2017-06-11T14:42:21.890Z,27.88
2017-06-11T14:44:51.581Z,28.18
2017-06-11T14:47:21.250Z,28.39
2017-06-11T14:49:50.946Z,28.64
2017-06-11T14:52:20.631Z,28.60
2017-06-11T14:54:50.365Z,28.59
2017-06-11T14:57:20.039Z,28.63
2017-06-11T14:59:49.772Z,28.27
2017-06-11T15:02:19.525Z,28.20
2017-06-11T15:04:49.417Z,27.79
2017-06-11T15:07:20.883Z,27.16
2017-06-11T15:09:50.552Z,27.44
2017-06-11T15:12:21.978Z,27.46
2017-06-11T15:14:52.899Z,27.16
2017-06-11T15:17:23.908Z,27.41
2017-06-11T15:19:54.887Z,27.46
2017-06-11T15:22:25.795Z,27.49
2017-06-11T15:24:56.621Z,27.40
2017-06-11T15:27:27.780Z,27.47
2017-06-11T15:29:58.654Z,27.46
2017-06-11T15:32:32.303Z,27.61
2017-06-11T15:35:04.138Z,27.58
2017-06-11T15:37:35.933Z,27.66
2017-06-11T15:40:06.733Z,27.68
2017-06-11T15:42:38.540Z,27.54
2017-06-11T15:45:09.987Z,27.65
2017-06-11T15:47:43.342Z,27.45
2017-06-11T15:50:16.931Z,27.50
2017-06-11T15:52:52.224Z,27.70
2017-06-11T15:55:27.012Z,27.54
2017-06-11T15:57:59.816Z,27.62
2017-06-11T16:00:32.431Z,27.58
2017-06-11T16:03:04.048Z,27.58
2017-06-11T16:05:36.122Z,27.42
2017-06-11T16:08:09.018Z,27.54
2017-06-11T16:10:40.699Z,27.32
2017-06-11T16:13:13.284Z,27.56
2017-06-11T16:15:43.937Z,27.48
2017-06-11T16:18:15.431Z,27.73
2017-06-11T16:20:46.794Z,27.84
2017-06-11T16:23:17.817Z,27.73
2017-06-11T16:25:48.495Z,27.71
2017-06-11T16:28:19.654Z,27.71
2017-06-11T16:30:50.472Z,27.56
2017-06-11T16:33:21.148Z,27.68
2017-06-11T16:35:52.010Z,27.88
2017-06-11T16:38:22.822Z,27.75
2017-06-11T16:40:53.346Z,27.85
2017-06-11T16:43:24.679Z,27.47
2017-06-11T16:45:55.540Z,27.46
2017-06-11T16:48:26.349Z,27.47
2017-06-11T16:50:56.618Z,27.54
2017-06-11T16:53:27.400Z,27.49
2017-06-11T16:55:58.338Z,27.29
2017-06-11T16:58:29.466Z,27.49
2017-06-11T17:01:01.048Z,27.61
2017-06-11T17:03:32.680Z,27.59
2017-06-11T17:06:03.617Z,27.63
2017-06-11T17:08:34.560Z,27.65
2017-06-11T17:11:05.394Z,27.50
2017-06-11T17:13:36.246Z,27.32
2017-06-11T17:16:07.215Z,27.39
2017-06-11T17:18:38.168Z,27.34
2017-06-11T17:21:09.693Z,27.04
2017-06-11T17:23:41.859Z,27.03
2017-06-11T17:26:13.612Z,27.05
2017-06-11T17:28:45.181Z,26.99
2017-06-11T17:31:16.095Z,27.03
2017-06-11T17:33:46.257Z,27.01
2017-06-11T17:36:15.935Z,27.00
2017-06-11T17:38:45.602Z,27.02
2017-06-11T17:41:15.437Z,27.06
2017-06-11T17:43:45.109Z,27.03
2017-06-11T17:46:14.764Z,26.98
2017-06-11T17:48:44.525Z,26.93
2017-06-11T17:51:14.229Z,26.77
2017-06-11T17:53:44.004Z,26.82
2017-06-11T17:56:13.771Z,26.77
2017-06-11T17:58:43.470Z,26.62
2017-06-11T18:01:13.177Z,26.64
2017-06-11T18:03:43.024Z,26.63
2017-06-11T18:06:12.707Z,26.65
2017-06-11T18:08:42.391Z,26.57
2017-06-11T18:11:12.094Z,26.49
2017-06-11T18:13:41.777Z,26.39
2017-06-11T18:16:11.539Z,26.31
2017-06-11T18:18:41.258Z,26.21
2017-06-11T18:21:11.006Z,26.19
2017-06-11T18:23:40.718Z,26.15
2017-06-11T18:26:10.407Z,25.96
2017-06-11T18:28:40.151Z,25.92
2017-06-11T18:31:09.835Z,25.93
2017-06-11T18:33:39.577Z,25.84
2017-06-11T18:36:09.289Z,25.73
2017-06-11T18:38:38.963Z,25.85
2017-06-11T18:41:09.481Z,25.88
2017-06-11T18:43:40.650Z,25.90
2017-06-11T18:46:12.791Z,25.87
2017-06-11T18:48:44.299Z,25.83
2017-06-11T18:51:14.980Z,25.81
2017-06-11T18:53:44.858Z,25.77
2017-06-11T18:56:14.606Z,25.68
2017-06-11T18:58:44.306Z,25.69
2017-06-11T19:01:13.974Z,25.64
2017-06-11T19:03:43.740Z,25.60
2017-06-11T19:06:13.418Z,25.55
2017-06-11T19:08:43.126Z,25.47
2017-06-11T19:11:12.841Z,25.36
2017-06-11T19:13:42.535Z,25.35
2017-06-11T19:16:12.287Z,25.24
2017-06-11T19:18:41.997Z,25.18
2017-06-11T19:21:13.180Z,25.06
2017-06-11T19:23:42.909Z,25.05
2017-06-11T19:26:12.617Z,25.03
2017-06-11T19:28:42.346Z,25.00
2017-06-11T19:31:12.050Z,24.98
2017-06-11T19:33:41.782Z,24.93
2017-06-11T19:36:11.477Z,24.83
2017-06-11T19:38:41.170Z,24.81
2017-06-11T19:41:10.875Z,24.76
2017-06-11T19:43:40.387Z,24.74
2017-06-11T19:46:10.964Z,24.73
2017-06-11T19:48:40.678Z,24.73
2017-06-11T19:51:10.374Z,24.59
2017-06-11T19:53:40.178Z,24.57
2017-06-11T19:56:09.856Z,24.55
2017-06-11T19:58:39.593Z,24.54
2017-06-11T20:01:09.380Z,24.57
2017-06-11T20:03:39.922Z,24.48
2017-06-11T20:06:09.647Z,24.41
2017-06-11T20:08:40.984Z,24.38
2017-06-11T20:11:10.715Z,24.35
2017-06-11T20:13:40.386Z,24.09
2017-06-11T20:16:10.062Z,24.05
2017-06-11T20:18:40.631Z,24.00
2017-06-11T20:21:10.314Z,24.18
2017-06-11T20:23:40.207Z,24.17
2017-06-11T20:26:09.890Z,24.23
2017-06-11T20:28:39.589Z,24.19
2017-06-11T20:31:09.313Z,24.21
2017-06-11T20:33:38.981Z,24.23
2017-06-11T20:36:08.713Z,24.27
2017-06-11T20:38:38.441Z,24.20
2017-06-11T20:41:08.126Z,24.26
2017-06-11T20:43:37.853Z,24.19
2017-06-11T20:46:08.153Z,24.08
2017-06-11T20:48:37.913Z,24.17
2017-06-11T20:51:07.618Z,24.10
2017-06-11T20:53:38.059Z,24.14
2017-06-11T20:56:07.860Z,24.10
2017-06-11T20:58:37.553Z,24.20
2017-06-11T21:01:07.298Z,24.25
2017-06-11T21:03:36.987Z,24.25
2017-06-11T21:06:06.832Z,24.24
2017-06-11T21:08:36.610Z,24.15
2017-06-11T21:11:06.294Z,24.09
2017-06-11T21:13:36.181Z,23.91
2017-06-11T21:16:05.865Z,23.92
2017-06-11T21:18:35.650Z,23.89
2017-06-11T21:21:05.344Z,23.81
2017-06-11T21:23:35.871Z,23.71
2017-06-11T21:26:05.598Z,23.72
2017-06-11T21:28:35.280Z,23.77
2017-06-11T21:31:04.974Z,23.75
2017-06-11T21:33:34.678Z,23.76
2017-06-11T21:36:04.349Z,23.72
2017-06-11T21:38:34.097Z,23.61
2017-06-11T21:41:03.779Z,23.58
2017-06-11T21:43:33.522Z,23.56
2017-06-11T21:46:03.242Z,23.68
2017-06-11T21:48:32.932Z,23.67
2017-06-11T21:51:02.822Z,23.54
2017-06-11T21:53:32.503Z,23.54
2017-06-11T21:56:02.354Z,23.61
2017-06-11T21:58:33.153Z,23.61
2017-06-11T22:01:02.855Z,23.55
2017-06-11T22:03:33.163Z,23.57
2017-06-11T22:06:02.917Z,23.61
2017-06-11T22:08:32.664Z,23.58
2017-06-11T22:11:02.482Z,23.50
2017-06-11T22:13:32.154Z,23.59
2017-06-11T22:16:02.034Z,23.65
2017-06-11T22:18:31.718Z,23.51
2017-06-11T22:21:01.465Z,23.55
2017-06-11T22:23:31.186Z,23.63
2017-06-11T22:26:00.869Z,23.36
2017-06-11T22:28:30.620Z,23.40
2017-06-11T22:31:00.293Z,23.42
2017-06-11T22:33:29.978Z,23.31
2017-06-11T22:35:59.781Z,23.36
2017-06-11T22:38:29.477Z,23.35
2017-06-11T22:40:59.192Z,23.32
2017-06-11T22:43:28.890Z,23.22
2017-06-11T22:45:58.573Z,23.10
2017-06-11T22:48:28.290Z,23.16
2017-06-11T22:50:57.963Z,23.08
2017-06-11T22:53:27.647Z,22.98
2017-06-11T22:55:57.327Z,22.87
2017-06-11T22:58:27.038Z,22.95
2017-06-11T23:00:56.790Z,22.75
2017-06-11T23:03:26.477Z,22.68
2017-06-11T23:05:56.216Z,22.85
2017-06-11T23:08:25.922Z,22.76
2017-06-11T23:10:55.630Z,22.48
2017-06-11T23:13:25.335Z,22.15
2017-06-11T23:15:55.022Z,22.12
2017-06-11T23:18:24.759Z,22.17
2017-06-11T23:20:54.447Z,22.24
2017-06-11T23:23:24.132Z,22.21
2017-06-11T23:25:56.778Z,22.30
2017-06-11T23:28:26.485Z,22.18
2017-06-11T23:30:56.230Z,22.09
2017-06-11T23:33:25.900Z,22.22
2017-06-11T23:35:55.590Z,22.15
2017-06-11T23:38:25.299Z,22.28
2017-06-11T23:40:54.951Z,22.24
2017-06-11T23:43:24.669Z,22.11
2017-06-11T23:45:54.370Z,22.23
2017-06-11T23:48:24.042Z,22.22
2017-06-11T23:50:53.772Z,22.21
2017-06-11T23:53:23.445Z,22.17
2017-06-11T23:55:53.193Z,22.16
2017-06-11T23:58:22.870Z,22.22
